Time;durP1;ratioP1;P1;durP2;ratioP2;P2;SDS_P1;SDS_P2;PMS_P1;PMS_P2;Temp;Humidity;BMP_temperature;BMP_pressure;BME280_temperature;BME280_humidity;BME280_pressure;Samples;Min_cycle;Max_cycle;Signal;HPM_P1;HPM_P2
2022/10/16 00:00:23;;;;;;;;;;;282.50;2278.40;;;;;;5093282;28;19966;-66
2022/10/16 00:02:48;;;;;;;;;;;307.20;2304.00;;;;;;5093030;28;19917;-65
2022/10/16 00:05:14;;;;;;;;;;;282.50;2278.40;;;;;;5093405;28;19912;-58
2022/10/16 00:07:39;;;;;;;;;;;307.20;2304.00;;;;;;5093157;28;19912;-57
2022/10/16 00:10:05;;;;;;;;;;;282.50;2278.40;;;;;;5093154;28;19924;-58
2022/10/16 00:12:31;;;;;;;;;;;282.40;2278.40;;;;;;5091922;28;19908;-58
2022/10/16 00:14:56;;;;;;;;;;;282.30;2278.40;;;;;;5092850;28;20373;-57
2022/10/16 00:17:22;;;;;;;;;;;282.50;2278.40;;;;;;5093126;28;19908;-64
2022/10/16 00:19:47;;;;;;;;;;;282.50;2278.40;;;;;;5092768;28;19908;-57
2022/10/16 00:22:13;;;;;;;;;;;282.40;2278.40;;;;;;5093004;28;19916;-58
2022/10/16 00:24:38;;;;;;;;;;;282.40;2278.40;;;;;;5092795;28;19908;-58
2022/10/16 00:27:04;;;;;;;;;;;282.40;2278.40;;;;;;5092715;28;19908;-58
2022/10/16 00:29:29;;;;;;;;;;;282.50;2278.40;;;;;;5093055;28;19998;-57
2022/10/16 00:31:55;;;;;;;;;;;282.50;2278.40;;;;;;5092660;28;20350;-58
2022/10/16 00:34:20;;;;;;;;;;;307.20;2304.00;;;;;;5092747;28;20293;-57
2022/10/16 00:36:46;;;;;;;;;;;307.30;2304.00;;;;;;5092598;28;20053;-64
2022/10/16 00:39:11;;;;;;;;;;;307.40;2304.00;;;;;;5092658;28;20418;-58
2022/10/16 00:41:37;;;;;;;;;;;307.40;2304.00;;;;;;5092480;28;20435;-58
2022/10/16 00:44:22;;;;;;;;;;;307.50;2304.00;;;;;;5092542;28;19923;-57
2022/10/16 00:46:48;;;;;;;;;;;307.50;2304.00;;;;;;5091306;28;19992;-62
2022/10/16 00:49:19;;;;;;;;;;;307.50;2304.00;;;;;;5092536;28;20353;-57
2022/10/16 00:51:49;;;;;;;;;;;307.20;2304.00;;;;;;5092609;28;20093;-63
2022/10/16 00:54:17;;;;;;;;;;;307.30;2304.00;;;;;;5091646;28;20789;-64
2022/10/16 00:56:44;;;;;;;;;;;307.40;2304.00;;;;;;5092415;28;19931;-64
2022/10/16 00:59:13;;;;;;;;;;;307.40;2304.00;;;;;;5092083;28;19943;-57
2022/10/16 01:01:39;;;;;;;;;;;307.50;2304.00;;;;;;5091946;28;19912;-57
2022/10/16 01:04:05;;;;;;;;;;;307.60;2304.00;;;;;;5091215;28;19924;-57
2022/10/16 01:06:35;;;;;;;;;;;307.50;2304.00;;;;;;5092292;28;20315;-58
2022/10/16 01:09:19;;;;;;;;;;;307.50;2304.00;;;;;;5091790;28;20533;-58
2022/10/16 01:11:45;;;;;;;;;;;307.50;2304.00;;;;;;5091891;28;19936;-58
2022/10/16 01:14:22;;;;;;;;;;;307.60;2304.00;;;;;;5092210;28;20289;-65
2022/10/16 01:17:04;;;;;;;;;;;307.60;2304.00;;;;;;5091732;28;20006;-63
2022/10/16 01:19:35;;;;;;;;;;;307.50;2304.00;;;;;;5091846;28;19997;-58
2022/10/16 01:22:01;;;;;;;;;;;307.40;2304.00;;;;;;5091789;28;19919;-61
2022/10/16 01:24:27;;;;;;;;;;;307.40;2304.00;;;;;;5091774;28;20277;-58
2022/10/16 01:27:01;;;;;;;;;;;307.40;2304.00;;;;;;5091638;28;19914;-62
2022/10/16 01:29:34;;;;;;;;;;;307.40;2304.00;;;;;;5091544;28;19908;-59
2022/10/16 01:32:02;;;;;;;;;;;307.30;2304.00;;;;;;5091764;28;19962;-58
2022/10/16 01:34:40;;;;;;;;;;;307.30;2304.00;;;;;;5091374;28;20414;-58
2022/10/16 01:37:09;;;;;;;;;;;307.20;2304.00;;;;;;5091342;28;20369;-58
2022/10/16 01:39:38;;;;;;;;;;;307.20;2304.00;;;;;;5091669;28;20410;-58
2022/10/16 01:42:07;;;;;;;;;;;307.20;2304.00;;;;;;5091529;28;20040;-57
2022/10/16 01:44:36;;;;;;;;;;;307.30;2304.00;;;;;;5091405;28;20311;-65
2022/10/16 01:47:01;;;;;;;;;;;307.40;2304.00;;;;;;5091503;28;20109;-66
2022/10/16 01:49:29;;;;;;;;;;;307.40;2304.00;;;;;;5091280;28;20028;-64
2022/10/16 01:51:56;;;;;;;;;;;307.40;2304.00;;;;;;5091216;28;19908;-58
2022/10/16 01:54:23;;;;;;;;;;;307.40;2304.00;;;;;;5091270;28;20020;-65
2022/10/16 01:56:49;;;;;;;;;;;307.50;2304.00;;;;;;5090992;28;20389;-58
2022/10/16 01:59:23;;;;;;;;;;;307.50;2304.00;;;;;;5091269;28;19908;-59
2022/10/16 02:01:52;;;;;;;;;;;307.40;2304.00;;;;;;5090988;28;19952;-58
2022/10/16 02:04:24;;;;;;;;;;;307.30;2304.00;;;;;;5090859;28;19920;-58
2022/10/16 02:06:49;;;;;;;;;;;307.50;2304.00;;;;;;5090815;28;19912;-58
2022/10/16 02:09:16;;;;;;;;;;;307.40;2304.00;;;;;;5090761;28;19946;-58
2022/10/16 02:11:42;;;;;;;;;;;307.50;2304.00;;;;;;5090988;28;19908;-58
2022/10/16 02:14:08;;;;;;;;;;;307.40;2304.00;;;;;;5090414;28;20019;-58
2022/10/16 02:16:44;;;;;;;;;;;307.30;2304.00;;;;;;5090375;28;19936;-57
2022/10/16 02:19:10;;;;;;;;;;;307.40;2304.00;;;;;;5090690;28;20362;-58
2022/10/16 02:21:38;;;;;;;;;;;307.30;2304.00;;;;;;5090549;28;19915;-58
2022/10/16 02:24:07;;;;;;;;;;;307.30;2304.00;;;;;;5090715;28;20015;-57
2022/10/16 02:26:42;;;;;;;;;;;307.40;2304.00;;;;;;5090733;28;20468;-58
2022/10/16 02:29:10;;;;;;;;;;;307.20;2304.00;;;;;;5090508;28;19912;-63
2022/10/16 02:31:36;;;;;;;;;;;307.20;2304.00;;;;;;5090497;28;19912;-58
2022/10/16 02:34:04;;;;;;;;;;;307.20;2304.00;;;;;;5090563;28;20273;-64
2022/10/16 02:36:31;;;;;;;;;;;307.20;2304.00;;;;;;5090588;28;19912;-58
2022/10/16 02:38:57;;;;;;;;;;;307.30;2304.00;;;;;;5090700;28;20304;-58
2022/10/16 02:41:23;;;;;;;;;;;282.50;2278.40;;;;;;5090541;28;19995;-57
2022/10/16 02:43:49;;;;;;;;;;;282.50;2278.40;;;;;;5090483;28;19926;-64
2022/10/16 02:46:15;;;;;;;;;;;282.50;2278.40;;;;;;5090614;28;19908;-65
2022/10/16 02:48:40;;;;;;;;;;;282.30;2278.40;;;;;;5090726;28;19918;-63
2022/10/16 02:51:06;;;;;;;;;;;282.30;2278.40;;;;;;5090270;28;20251;-58
2022/10/16 02:53:31;;;;;;;;;;;282.40;2278.40;;;;;;5090496;28;19908;-58
2022/10/16 02:55:57;;;;;;;;;;;282.30;2278.40;;;;;;5090297;28;19947;-58
2022/10/16 02:58:22;;;;;;;;;;;282.30;2278.40;;;;;;5090421;28;19916;-58
2022/10/16 03:00:48;;;;;;;;;;;282.30;2278.40;;;;;;5090350;28;19912;-64
2022/10/16 03:03:13;;;;;;;;;;;282.20;2278.40;;;;;;5090348;28;19972;-57
2022/10/16 03:05:39;;;;;;;;;;;282.10;2278.40;;;;;;5090154;28;19912;-57
2022/10/16 03:08:05;;;;;;;;;;;282.00;2278.40;;;;;;5090254;28;19948;-58
2022/10/16 03:10:30;;;;;;;;;;;282.00;2278.40;;;;;;5090289;28;19921;-58
2022/10/16 03:12:56;;;;;;;;;;;282.00;2278.40;;;;;;5090286;28;19915;-58
2022/10/16 03:15:21;;;;;;;;;;;282.00;2278.40;;;;;;5090381;28;19909;-63
2022/10/16 03:17:47;;;;;;;;;;;282.00;2278.40;;;;;;5090082;28;19909;-64
2022/10/16 03:20:13;;;;;;;;;;;282.00;2278.40;;;;;;5090380;28;19908;-58
2022/10/16 03:22:38;;;;;;;;;;;282.00;2278.40;;;;;;5089890;28;19969;-58
2022/10/16 03:25:04;;;;;;;;;;;281.90;2278.40;;;;;;5090210;28;20003;-58
2022/10/16 03:27:29;;;;;;;;;;;282.00;2278.40;;;;;;5092872;28;19908;-58
2022/10/16 03:29:55;;;;;;;;;;;281.90;2278.40;;;;;;5093749;28;19908;-58
2022/10/16 03:32:21;;;;;;;;;;;282.00;2278.40;;;;;;5094142;28;19908;-58
2022/10/16 03:34:47;;;;;;;;;;;281.90;2278.40;;;;;;5093640;28;19912;-60
2022/10/16 03:37:12;;;;;;;;;;;281.90;2278.40;;;;;;5093960;28;19912;-63
2022/10/16 03:39:38;;;;;;;;;;;281.90;2278.40;;;;;;5093751;28;19915;-58
2022/10/16 03:42:03;;;;;;;;;;;281.90;2278.40;;;;;;5093564;28;19909;-62
2022/10/16 03:44:29;;;;;;;;;;;281.90;2278.40;;;;;;5093803;28;19908;-58
2022/10/16 03:46:55;;;;;;;;;;;281.80;2278.40;;;;;;5093922;28;20325;-57
2022/10/16 03:49:20;;;;;;;;;;;281.80;2278.40;;;;;;5093507;28;19987;-58
2022/10/16 03:51:46;;;;;;;;;;;281.70;2278.40;;;;;;5093406;28;19915;-63
2022/10/16 03:54:11;;;;;;;;;;;281.70;2278.40;;;;;;5093648;28;19915;-58
2022/10/16 03:56:37;;;;;;;;;;;281.70;2278.40;;;;;;5093498;28;19908;-58
2022/10/16 03:59:03;;;;;;;;;;;281.70;2278.40;;;;;;5093431;28;19908;-57
2022/10/16 04:01:28;;;;;;;;;;;281.70;2278.40;;;;;;5093212;28;19908;-58
2022/10/16 04:03:54;;;;;;;;;;;281.60;2278.40;;;;;;5093136;28;19927;-66
2022/10/16 04:06:19;;;;;;;;;;;281.90;2278.40;;;;;;5093181;28;19941;-58
2022/10/16 04:08:45;;;;;;;;;;;281.60;2278.40;;;;;;5092896;28;19919;-59
2022/10/16 04:11:11;;;;;;;;;;;281.60;2278.40;;;;;;5093583;28;20411;-58
2022/10/16 04:13:36;;;;;;;;;;;256.90;2252.80;;;;;;5093055;28;19908;-58
2022/10/16 04:16:02;;;;;;;;;;;281.60;2278.40;;;;;;5093157;28;19915;-57
2022/10/16 04:18:27;;;;;;;;;;;281.60;2278.40;;;;;;5092976;28;19908;-58
2022/10/16 04:20:53;;;;;;;;;;;281.70;2278.40;;;;;;5093076;28;19908;-58
2022/10/16 04:23:19;;;;;;;;;;;281.70;2278.40;;;;;;5092720;28;19916;-58
2022/10/16 04:25:45;;;;;;;;;;;281.70;2278.40;;;;;;5093181;28;20010;-57
2022/10/16 04:28:10;;;;;;;;;;;281.60;2278.40;;;;;;5092961;28;19948;-63
2022/10/16 04:30:37;;;;;;;;;;;281.60;2278.40;;;;;;5092704;28;19908;-58
2022/10/16 04:33:03;;;;;;;;;;;281.60;2278.40;;;;;;5092642;28;20376;-57
2022/10/16 04:35:28;;;;;;;;;;;256.90;2252.80;;;;;;5092588;28;19916;-57
2022/10/16 04:37:54;;;;;;;;;;;256.80;2252.80;;;;;;5091722;28;19908;-57
2022/10/16 04:40:19;;;;;;;;;;;256.70;2252.80;;;;;;5092378;28;19915;-57
2022/10/16 04:42:45;;;;;;;;;;;256.70;2252.80;;;;;;5092779;28;20003;-57
2022/10/16 04:45:11;;;;;;;;;;;256.70;2252.80;;;;;;5092676;28;19908;-58
2022/10/16 04:47:36;;;;;;;;;;;256.70;2252.80;;;;;;5092567;28;19995;-61
2022/10/16 04:50:02;;;;;;;;;;;256.80;2252.80;;;;;;5092472;28;19943;-58
2022/10/16 04:52:28;;;;;;;;;;;256.80;2252.80;;;;;;5092249;28;19915;-57
2022/10/16 04:54:54;;;;;;;;;;;256.80;2252.80;;;;;;5092455;28;19908;-57
2022/10/16 04:57:19;;;;;;;;;;;256.80;2252.80;;;;;;5092349;28;19960;-57
2022/10/16 04:59:45;;;;;;;;;;;256.80;2252.80;;;;;;5092516;28;19908;-58
2022/10/16 05:02:10;;;;;;;;;;;256.80;2252.80;;;;;;5092200;28;19908;-58
2022/10/16 05:04:36;;;;;;;;;;;256.90;2252.80;;;;;;5091786;28;19916;-58
2022/10/16 05:07:01;;;;;;;;;;;256.90;2252.80;;;;;;5092127;28;20007;-58
2022/10/16 05:09:27;;;;;;;;;;;256.90;2252.80;;;;;;5091613;28;19974;-58
2022/10/16 05:11:52;;;;;;;;;;;256.90;2252.80;;;;;;5092051;28;19951;-58
2022/10/16 05:14:18;;;;;;;;;;;281.60;2278.40;;;;;;5091635;28;19942;-58
2022/10/16 05:16:44;;;;;;;;;;;281.70;2278.40;;;;;;5092014;28;19934;-57
2022/10/16 05:19:10;;;;;;;;;;;281.60;2278.40;;;;;;5091907;28;19953;-58
2022/10/16 05:21:35;;;;;;;;;;;281.70;2278.40;;;;;;5091647;28;19912;-57
2022/10/16 05:24:01;;;;;;;;;;;281.70;2278.40;;;;;;5091724;28;20018;-57
2022/10/16 05:26:26;;;;;;;;;;;281.70;2278.40;;;;;;5091560;28;19908;-58
2022/10/16 05:28:52;;;;;;;;;;;281.70;2278.40;;;;;;5091698;28;20017;-58
2022/10/16 05:31:17;;;;;;;;;;;281.60;2278.40;;;;;;5091585;28;19912;-58
2022/10/16 05:33:43;;;;;;;;;;;281.70;2278.40;;;;;;5091743;28;20297;-58
2022/10/16 05:36:09;;;;;;;;;;;281.90;2278.40;;;;;;5091517;28;19935;-58
2022/10/16 05:38:35;;;;;;;;;;;281.90;2278.40;;;;;;5091431;28;20373;-58
2022/10/16 05:41:01;;;;;;;;;;;282.00;2278.40;;;;;;5091303;28;20429;-60
2022/10/16 05:43:27;;;;;;;;;;;282.10;2278.40;;;;;;5091317;28;19916;-58
2022/10/16 05:45:53;;;;;;;;;;;282.20;2278.40;;;;;;5091570;28;19950;-58
2022/10/16 05:48:19;;;;;;;;;;;282.30;2278.40;;;;;;5091269;28;20289;-57
2022/10/16 05:50:44;;;;;;;;;;;282.30;2278.40;;;;;;5091241;28;19915;-57
2022/10/16 05:53:10;;;;;;;;;;;282.30;2278.40;;;;;;5091246;28;19908;-60
2022/10/16 05:55:36;;;;;;;;;;;282.40;2278.40;;;;;;5091167;28;19912;-58
2022/10/16 05:58:01;;;;;;;;;;;282.50;2278.40;;;;;;5091164;28;19908;-58
2022/10/16 06:00:27;;;;;;;;;;;282.50;2278.40;;;;;;5091116;28;19908;-58
2022/10/16 06:02:53;;;;;;;;;;;282.50;2278.40;;;;;;5090819;28;19923;-58
2022/10/16 06:05:18;;;;;;;;;;;282.50;2278.40;;;;;;5090795;28;20377;-61
2022/10/16 06:07:44;;;;;;;;;;;307.30;2304.00;;;;;;5091025;28;19912;-64
2022/10/16 06:10:09;;;;;;;;;;;307.30;2304.00;;;;;;5090786;28;19916;-58
2022/10/16 06:12:35;;;;;;;;;;;307.30;2304.00;;;;;;5090602;28;20377;-58
2022/10/16 06:15:01;;;;;;;;;;;307.50;2304.00;;;;;;5090841;28;19935;-62
2022/10/16 06:17:26;;;;;;;;;;;307.60;2304.00;;;;;;5090950;28;19908;-58
2022/10/16 06:19:52;;;;;;;;;;;307.80;2304.00;;;;;;5090989;28;19908;-58
2022/10/16 06:22:17;;;;;;;;;;;332.80;2329.60;;;;;;5090691;28;20357;-58
2022/10/16 06:24:43;;;;;;;;;;;333.00;2329.60;;;;;;5090878;28;19912;-58
2022/10/16 06:27:08;;;;;;;;;;;333.20;2329.60;;;;;;5090487;28;19908;-64
2022/10/16 06:29:34;;;;;;;;;;;333.10;2329.60;;;;;;5090709;28;20265;-65
2022/10/16 06:31:59;;;;;;;;;;;333.00;2329.60;;;;;;5090487;28;20319;-58
2022/10/16 06:34:25;;;;;;;;;;;333.10;2329.60;;;;;;5090590;28;19918;-58
2022/10/16 06:36:50;;;;;;;;;;;333.20;2329.60;;;;;;5090639;28;19912;-58
2022/10/16 06:39:16;;;;;;;;;;;333.30;2329.60;;;;;;5090432;28;19915;-62
2022/10/16 06:41:41;;;;;;;;;;;333.30;2329.60;;;;;;5090837;28;19908;-65
2022/10/16 06:44:07;;;;;;;;;;;333.40;2329.60;;;;;;5090000;28;20018;-58
2022/10/16 06:46:33;;;;;;;;;;;333.40;2329.60;;;;;;5090782;28;19920;-58
2022/10/16 06:48:58;;;;;;;;;;;333.40;2329.60;;;;;;5090396;28;20362;-59
2022/10/16 06:51:25;;;;;;;;;;;333.50;2329.60;;;;;;5090672;28;19915;-66
2022/10/16 06:53:54;;;;;;;;;;;333.40;2329.60;;;;;;5090509;28;19919;-59
2022/10/16 06:56:20;;;;;;;;;;;333.50;2329.60;;;;;;5090301;28;19909;-58
2022/10/16 06:58:46;;;;;;;;;;;333.40;2329.60;;;;;;5090056;28;19908;-63
2022/10/16 07:01:12;;;;;;;;;;;333.50;2329.60;;;;;;5091681;28;20371;-58
2022/10/16 07:03:38;;;;;;;;;;;333.70;2329.60;;;;;;5094066;28;19920;-58
2022/10/16 07:06:04;;;;;;;;;;;358.50;2329.60;;;;;;5094379;28;20354;-65
2022/10/16 07:08:31;;;;;;;;;;;384.30;2329.60;;;;;;5094222;28;19942;-59
2022/10/16 07:11:03;;;;;;;;;;;460.80;2380.80;;;;;;5094104;28;19908;-59
2022/10/16 07:13:29;;;;;;;;;;;487.10;2380.80;;;;;;5094081;28;19916;-64
2022/10/16 07:15:55;;;;;;;;;;;537.60;2304.00;;;;;;5094314;28;19908;-59
2022/10/16 07:18:21;;;;;;;;;;;564.00;2176.00;;;;;;5094459;28;19951;-64
2022/10/16 07:20:47;;;;;;;;;;;589.20;1996.80;;;;;;5094175;28;19944;-60
2022/10/16 07:23:12;;;;;;;;;;;614.60;1894.40;;;;;;5094156;28;19963;-60
2022/10/16 07:25:38;;;;;;;;;;;640.00;1817.60;;;;;;5094061;28;20357;-60
2022/10/16 07:28:03;;;;;;;;;;;614.80;1817.60;;;;;;5093984;28;19908;-59
2022/10/16 07:30:29;;;;;;;;;;;615.20;1792.00;;;;;;5093788;28;19965;-59
2022/10/16 07:32:54;;;;;;;;;;;640.20;1715.20;;;;;;5093901;28;19913;-59
2022/10/16 07:35:20;;;;;;;;;;;640.40;1715.20;;;;;;5093861;28;19916;-60
2022/10/16 07:37:46;;;;;;;;;;;665.60;1689.60;;;;;;5093700;28;19953;-60
2022/10/16 07:40:11;;;;;;;;;;;666.20;1664.00;;;;;;5093919;28;19915;-65
2022/10/16 07:42:37;;;;;;;;;;;665.90;1664.00;;;;;;5093566;28;19924;-60
2022/10/16 07:45:03;;;;;;;;;;;691.70;1638.40;;;;;;5093660;28;20304;-60
2022/10/16 07:47:28;;;;;;;;;;;691.60;1587.20;;;;;;5093760;28;19908;-65
2022/10/16 07:49:54;;;;;;;;;;;691.60;1587.20;;;;;;5093798;28;20269;-59
2022/10/16 07:52:19;;;;;;;;;;;691.70;1587.20;;;;;;5093524;28;19915;-59
2022/10/16 07:54:45;;;;;;;;;;;691.70;1587.20;;;;;;5093474;28;20370;-63
2022/10/16 07:57:10;;;;;;;;;;;716.90;1561.60;;;;;;5093652;28;19908;-59
2022/10/16 07:59:36;;;;;;;;;;;742.60;1510.40;;;;;;5093250;28;20273;-60
2022/10/16 08:02:01;;;;;;;;;;;717.40;1484.80;;;;;;5093547;28;20003;-66
2022/10/16 08:04:27;;;;;;;;;;;743.00;1459.20;;;;;;5093061;28;19969;-60
2022/10/16 08:06:54;;;;;;;;;;;743.10;1408.00;;;;;;5093442;28;19916;-61
2022/10/16 08:09:19;;;;;;;;;;;742.90;1433.60;;;;;;5092772;28;20278;-63
2022/10/16 08:11:45;;;;;;;;;;;743.20;1433.60;;;;;;5093221;28;20268;-62
2022/10/16 08:14:10;;;;;;;;;;;742.90;1459.20;;;;;;5093223;28;19908;-59
2022/10/16 08:16:36;;;;;;;;;;;717.60;1459.20;;;;;;5092923;28;19908;-60
2022/10/16 08:19:02;;;;;;;;;;;743.20;1433.60;;;;;;5093359;28;19908;-60
2022/10/16 08:21:27;;;;;;;;;;;742.40;1484.80;;;;;;5092926;28;19909;-58
2022/10/16 08:23:54;;;;;;;;;;;717.40;1459.20;;;;;;5092759;28;20010;-60
2022/10/16 08:26:20;;;;;;;;;;;717.20;1484.80;;;;;;5092913;28;20337;-59
2022/10/16 08:28:45;;;;;;;;;;;743.00;1408.00;;;;;;5092716;28;19955;-60
2022/10/16 08:31:12;;;;;;;;;;;768.10;1408.00;;;;;;5092926;28;20281;-64
2022/10/16 08:33:38;;;;;;;;;;;768.30;1382.40;;;;;;5092479;28;19916;-60
2022/10/16 08:36:05;;;;;;;;;;;768.00;1433.60;;;;;;5093054;28;20297;-60
2022/10/16 08:38:30;;;;;;;;;;;743.00;1433.60;;;;;;5092772;28;19908;-61
2022/10/16 08:41:01;;;;;;;;;;;794.50;1356.80;;;;;;5092577;28;19908;-62
2022/10/16 08:43:30;;;;;;;;;;;819.40;1331.20;;;;;;5092254;28;20322;-62
2022/10/16 08:45:55;;;;;;;;;;;819.70;1331.20;;;;;;5092330;28;20424;-62
2022/10/16 08:48:35;;;;;;;;;;;794.10;1356.80;;;;;;5090090;28;19912;-62
2022/10/16 08:51:02;;;;;;;;;;;793.80;1356.80;;;;;;5090856;28;19935;-62
2022/10/16 08:53:48;;;;;;;;;;;793.60;1356.80;;;;;;5090671;28;19917;-61
2022/10/16 08:56:13;;;;;;;;;;;768.70;1382.40;;;;;;5090484;28;19915;-62
2022/10/16 08:58:39;;;;;;;;;;;768.20;1382.40;;;;;;5090267;28;19938;-60
2022/10/16 09:01:11;;;;;;;;;;;742.90;1433.60;;;;;;5090435;28;20425;-61
2022/10/16 09:03:39;;;;;;;;;;;768.30;1382.40;;;;;;5090222;28;19987;-61
2022/10/16 09:06:36;;;;;;;;;;;742.70;1433.60;;;;;;5090352;28;20381;-61
2022/10/16 09:09:12;;;;;;;;;;;742.80;1459.20;;;;;;5028336;28;19928;-60
2022/10/16 09:11:41;;;;;;;;;;;691.60;1510.40;;;;;;5015742;28;19925;-61
2022/10/16 09:14:15;;;;;;;;;;;665.70;1561.60;;;;;;5007486;28;19968;-61
2022/10/16 09:16:44;;;;;;;;;;;640.60;1561.60;;;;;;5008011;28;19910;-60
2022/10/16 09:19:16;;;;;;;;;;;640.30;1561.60;;;;;;5007883;28;19909;-60
2022/10/16 09:21:43;;;;;;;;;;;640.00;1587.20;;;;;;5007905;28;20024;-61
2022/10/16 09:24:14;;;;;;;;;;;614.90;1638.40;;;;;;5007123;28;19922;-60
2022/10/16 09:26:40;;;;;;;;;;;615.10;1638.40;;;;;;5007229;28;19909;-61
2022/10/16 09:29:06;;;;;;;;;;;614.50;1715.20;;;;;;5007635;28;20433;-61
2022/10/16 09:31:31;;;;;;;;;;;589.70;1715.20;;;;;;5007903;28;19909;-61
2022/10/16 09:34:05;;;;;;;;;;;614.40;1715.20;;;;;;5007484;28;19909;-60
2022/10/16 09:36:35;;;;;;;;;;;589.50;1740.80;;;;;;5008902;28;19918;-60
2022/10/16 09:39:08;;;;;;;;;;;589.20;1740.80;;;;;;5009941;28;19910;-61
2022/10/16 09:41:37;;;;;;;;;;;589.10;1766.40;;;;;;5009599;28;19909;-61
2022/10/16 09:44:04;;;;;;;;;;;564.00;1817.60;;;;;;5014941;28;20386;-60
2022/10/16 09:46:31;;;;;;;;;;;564.10;1817.60;;;;;;5034529;28;19960;-60
2022/10/16 09:48:59;;;;;;;;;;;589.10;1792.00;;;;;;5050489;28;19913;-60
2022/10/16 09:51:26;;;;;;;;;;;564.00;1792.00;;;;;;5051333;28;19915;-59
2022/10/16 09:53:56;;;;;;;;;;;563.80;1792.00;;;;;;5051386;28;19916;-60
2022/10/16 09:56:23;;;;;;;;;;;563.80;1792.00;;;;;;5051077;28;20412;-60
2022/10/16 09:58:51;;;;;;;;;;;564.00;1766.40;;;;;;5050822;28;20263;-61
2022/10/16 10:01:16;;;;;;;;;;;563.90;1740.80;;;;;;5050652;28;20279;-61
2022/10/16 10:03:43;;;;;;;;;;;563.80;1740.80;;;;;;5050785;28;19916;-61
2022/10/16 10:06:17;;;;;;;;;;;563.80;1766.40;;;;;;5050567;28;19921;-61
2022/10/16 10:08:53;;;;;;;;;;;563.80;1792.00;;;;;;5069563;28;19920;-60
2022/10/16 10:11:18;;;;;;;;;;;563.80;1792.00;;;;;;5090887;28;19931;-60
2022/10/16 10:13:44;;;;;;;;;;;563.50;1792.00;;;;;;5091028;28;20357;-60
2022/10/16 10:16:09;;;;;;;;;;;563.60;1792.00;;;;;;5090697;28;19908;-61
2022/10/16 10:18:35;;;;;;;;;;;563.50;1792.00;;;;;;5090567;28;19981;-61
2022/10/16 10:21:02;;;;;;;;;;;563.60;1792.00;;;;;;5091116;28;20324;-60
2022/10/16 10:23:28;;;;;;;;;;;563.60;1817.60;;;;;;5090721;28;20014;-61
2022/10/16 10:25:56;;;;;;;;;;;563.50;1817.60;;;;;;5090710;28;19912;-60
2022/10/16 10:28:25;;;;;;;;;;;563.80;1792.00;;;;;;5090660;28;19908;-60
2022/10/16 10:30:50;;;;;;;;;;;563.80;1817.60;;;;;;5090747;28;19953;-60
2022/10/16 10:33:24;;;;;;;;;;;563.80;1817.60;;;;;;5090715;28;19916;-61
2022/10/16 10:35:56;;;;;;;;;;;563.70;1817.60;;;;;;5089613;28;20305;-61
2022/10/16 10:38:45;;;;;;;;;;;563.60;1817.60;;;;;;5090696;28;19908;-60
2022/10/16 10:41:20;;;;;;;;;;;563.60;1817.60;;;;;;5090594;28;19961;-60
2022/10/16 10:43:49;;;;;;;;;;;563.70;1766.40;;;;;;5090505;28;19922;-61
2022/10/16 10:46:35;;;;;;;;;;;563.70;1792.00;;;;;;5090529;28;19960;-61
2022/10/16 10:49:04;;;;;;;;;;;563.70;1792.00;;;;;;5090503;28;19912;-61
2022/10/16 10:51:36;;;;;;;;;;;563.70;1792.00;;;;;;5090305;28;20305;-61
2022/10/16 10:54:14;;;;;;;;;;;563.70;1766.40;;;;;;5090387;28;19912;-60
2022/10/16 10:56:48;;;;;;;;;;;563.80;1766.40;;;;;;5090257;28;19908;-61
2022/10/16 10:59:14;;;;;;;;;;;563.80;1766.40;;;;;;5090441;28;19908;-60
2022/10/16 11:01:58;;;;;;;;;;;563.60;1817.60;;;;;;5090360;28;20281;-61
2022/10/16 11:04:26;;;;;;;;;;;563.50;1817.60;;;;;;5090365;28;20335;-60
2022/10/16 11:06:55;;;;;;;;;;;563.70;1792.00;;;;;;5089254;28;19950;-60
2022/10/16 11:09:44;;;;;;;;;;;563.70;1766.40;;;;;;5090180;28;19926;-60
2022/10/16 11:12:20;;;;;;;;;;;563.70;1792.00;;;;;;5047915;28;19931;-60
2022/10/16 11:14:51;;;;;;;;;;;563.80;1792.00;;;;;;5047684;28;20008;-60
2022/10/16 11:17:19;;;;;;;;;;;563.80;1766.40;;;;;;5047619;28;19951;-59
2022/10/16 11:19:47;;;;;;;;;;;563.60;1792.00;;;;;;5047735;28;19909;-60
2022/10/16 11:22:19;;;;;;;;;;;563.80;1792.00;;;;;;5047834;28;20023;-60
2022/10/16 11:25:03;;;;;;;;;;;563.90;1766.40;;;;;;5048028;28;20487;-60
2022/10/16 11:27:47;;;;;;;;;;;563.90;1792.00;;;;;;5047678;28;19912;-59
2022/10/16 11:30:33;;;;;;;;;;;564.00;1792.00;;;;;;5047884;28;19909;-60
2022/10/16 11:32:59;;;;;;;;;;;564.00;1792.00;;;;;;5047047;28;20334;-59
2022/10/16 11:35:37;;;;;;;;;;;563.80;1792.00;;;;;;5047747;28;19917;-60
2022/10/16 11:38:09;;;;;;;;;;;563.80;1792.00;;;;;;5047533;28;20410;-60
2022/10/16 11:40:37;;;;;;;;;;;563.80;1792.00;;;;;;5047664;28;19916;-59
2022/10/16 11:43:21;;;;;;;;;;;563.90;1792.00;;;;;;5047514;28;19913;-60
2022/10/16 11:45:51;;;;;;;;;;;563.90;1766.40;;;;;;5047400;28;20024;-60
2022/10/16 11:48:17;;;;;;;;;;;564.00;1766.40;;;;;;5055756;28;20275;-60
2022/10/16 11:50:45;;;;;;;;;;;564.00;1792.00;;;;;;5093923;28;19922;-60
2022/10/16 11:53:31;;;;;;;;;;;564.00;1766.40;;;;;;5094054;28;19991;-60
2022/10/16 11:55:57;;;;;;;;;;;564.00;1792.00;;;;;;5093994;28;20399;-61
2022/10/16 11:58:26;;;;;;;;;;;563.90;1766.40;;;;;;5094443;28;19911;-61
2022/10/16 12:00:52;;;;;;;;;;;563.90;1792.00;;;;;;5094278;28;20319;-60
2022/10/16 12:03:17;;;;;;;;;;;563.90;1766.40;;;;;;5093052;28;19945;-60
2022/10/16 12:05:55;;;;;;;;;;;563.90;1792.00;;;;;;5093534;28;19912;-60
2022/10/16 12:08:21;;;;;;;;;;;564.00;1792.00;;;;;;5093203;28;19915;-60
2022/10/16 12:10:47;;;;;;;;;;;564.00;1766.40;;;;;;5093190;28;20278;-61
2022/10/16 12:13:32;;;;;;;;;;;563.90;1740.80;;;;;;5093354;28;19908;-60
2022/10/16 12:16:05;;;;;;;;;;;563.90;1766.40;;;;;;5092868;28;19908;-60
2022/10/16 12:18:31;;;;;;;;;;;564.00;1740.80;;;;;;5093291;28;19915;-60
2022/10/16 12:20:59;;;;;;;;;;;564.00;1740.80;;;;;;5093028;28;19908;-60
2022/10/16 12:23:25;;;;;;;;;;;563.80;1715.20;;;;;;5093123;28;20425;-60
2022/10/16 12:25:58;;;;;;;;;;;563.70;1715.20;;;;;;5093141;28;19908;-60
2022/10/16 12:28:28;;;;;;;;;;;563.90;1740.80;;;;;;5093045;28;19930;-59
2022/10/16 12:30:58;;;;;;;;;;;564.00;1689.60;;;;;;5092845;28;20389;-60
2022/10/16 12:33:27;;;;;;;;;;;564.00;1689.60;;;;;;5092889;28;19919;-60
2022/10/16 12:35:53;;;;;;;;;;;564.10;1689.60;;;;;;5093011;28;20038;-60
2022/10/16 12:38:26;;;;;;;;;;;564.10;1715.20;;;;;;5092819;28;19916;-60
2022/10/16 12:40:57;;;;;;;;;;;564.10;1715.20;;;;;;5092867;28;19911;-60
2022/10/16 12:43:32;;;;;;;;;;;564.10;1689.60;;;;;;5092502;28;19920;-60
2022/10/16 12:46:21;;;;;;;;;;;564.10;1715.20;;;;;;5092253;28;19998;-60
2022/10/16 12:48:48;;;;;;;;;;;564.10;1689.60;;;;;;5049925;28;19908;-60
2022/10/16 12:51:33;;;;;;;;;;;588.80;1689.60;;;;;;5050196;28;19938;-60
2022/10/16 12:53:59;;;;;;;;;;;564.10;1715.20;;;;;;5049726;28;19920;-60
2022/10/16 12:56:31;;;;;;;;;;;564.10;1715.20;;;;;;5050123;28;19909;-60
2022/10/16 12:58:57;;;;;;;;;;;564.00;1715.20;;;;;;5048939;28;19909;-61
2022/10/16 13:01:23;;;;;;;;;;;564.10;1715.20;;;;;;5049974;28;20015;-61
2022/10/16 13:03:58;;;;;;;;;;;564.10;1689.60;;;;;;5049572;28;19951;-61
2022/10/16 13:06:44;;;;;;;;;;;564.10;1689.60;;;;;;5049829;28;19924;-61
2022/10/16 13:09:45;;;;;;;;;;;564.00;1689.60;;;;;;5049303;28;19928;-61
2022/10/16 13:12:39;;;;;;;;;;;564.10;1715.20;;;;;;5009923;28;19910;-61
2022/10/16 13:15:17;;;;;;;;;;;588.80;1689.60;;;;;;4970672;28;19953;-61
2022/10/16 13:17:43;;;;;;;;;;;564.10;1715.20;;;;;;4971152;28;19954;-61
2022/10/16 13:20:19;;;;;;;;;;;564.10;1689.60;;;;;;4970661;28;19968;-61
2022/10/16 13:22:50;;;;;;;;;;;564.10;1715.20;;;;;;4970900;28;20018;-61
2022/10/16 13:25:16;;;;;;;;;;;564.10;1715.20;;;;;;4988138;28;20004;-61
2022/10/16 13:27:46;;;;;;;;;;;588.80;1715.20;;;;;;5029743;28;20411;-61
2022/10/16 13:30:15;;;;;;;;;;;588.90;1715.20;;;;;;5029615;28;20374;-60
2022/10/16 13:32:43;;;;;;;;;;;588.90;1715.20;;;;;;5029502;28;19913;-61
2022/10/16 13:35:19;;;;;;;;;;;588.80;1689.60;;;;;;5029223;28;19917;-61
2022/10/16 13:37:44;;;;;;;;;;;564.10;1715.20;;;;;;5029370;28;20379;-61
2022/10/16 13:40:28;;;;;;;;;;;588.90;1740.80;;;;;;5029262;28;19913;-61
2022/10/16 13:42:53;;;;;;;;;;;588.80;1715.20;;;;;;5029216;28;19914;-61
2022/10/16 13:45:20;;;;;;;;;;;564.10;1715.20;;;;;;5028949;28;19920;-61
2022/10/16 13:47:46;;;;;;;;;;;564.10;1715.20;;;;;;5029072;28;19955;-61